Mount Pleasant, SC (29464)

9:38 AM EST on December 05, 2016 (GMT -0500)
Snee Farm | | Change Station

Elev 22 ft 32.84 °N, 79.84 °W | Updated 2 minutes ago

Light Rain
Light Rain Mist
55.2 °F
Feels Like 55.2 °F
N
0.0
Wind Variable Wind from North

Today
High -- | Low -- °F
--% Chance of Precip.
Yesterday
High -- | Low -- °F
Precip. -- in
Pressure 29.99 in
Visibility 2.0 miles
Clouds Overcast 400 ft
Dew Point 54 °F
Humidity 96%
Rainfall 0.00 in
Snow Depth Not available.
7:07 AM 5:12 PM
Waxing Crescent, 32% visible
METAR KCHS 051356Z 01006KT 2SM -RA BR OVC004 12/11 A2999 RMK AO2 SFC VIS 3 RAB55 SLP156 P0000 T01170106
Pressure 29.99 in
Visibility 2.0 miles
Clouds Overcast 400 ft
Dew Point 54 °F
Humidity 96%
Rainfall 0.00 in
Snow Depth Not available.
7:07 AM 5:12 PM
Waxing Crescent, 32% visible
METAR KCHS 051356Z 01006KT 2SM -RA BR OVC004 12/11 A2999 RMK AO2 SFC VIS 3 RAB55 SLP156 P0000 T01170106

10-Day Weather Forecast

Almanac

Astronomy

Dec. 05, 2016 Rise Set
Actual Time
Civil Twilight
Nautical Twilight
Astronomical Twilight
Moon
Length of Visible Light
Length of Day
Tomorrow will be .
, % of the Moon is Illuminated

Today's Extremes

State Highs State Lows

Community

WunderPhotos

Upload Photos

1,955,782 photos uploaded!

WunderBlog® & News

Nearby

Air Quality

  Air Quality AQ Index Pollutant
Not available.

Snow Depth

Station Depth Elevation

Earthquake Activity

City Distance Mag. Time & Date
Minimum magnitude displayed is 2.5.

Coastal Water Temperatures

Place Temperature

Stations

Nearby Weather Stations

Station Location Temp. Windchill Dew Point Humidity Wind Precip. Elev Updated Type
                   

Watches & Warnings

There are currently no watches in effect.